createdAt,value
2022-10-03T00:01:57.046Z,5.18
2022-10-03T00:04:40.563Z,4.70
2022-10-03T00:07:23.523Z,4.90
2022-10-03T00:10:06.096Z,5.65
2022-10-03T00:12:50.714Z,6.63
2022-10-03T00:15:25.871Z,6.05
2022-10-03T00:18:05.118Z,6.20
2022-10-03T00:20:47.381Z,6.38
2022-10-03T00:23:22.713Z,7.18
2022-10-03T00:26:21.810Z,5.88
2022-10-03T00:28:58.515Z,6.88
2022-10-03T00:31:43.430Z,5.82
2022-10-03T00:34:25.681Z,6.68
2022-10-03T00:37:15.816Z,6.78
2022-10-03T00:40:04.559Z,6.70
2022-10-03T00:43:01.325Z,7.00
2022-10-03T00:45:55.523Z,7.15
2022-10-03T00:48:56.577Z,6.07
2022-10-03T00:51:41.539Z,6.30
2022-10-03T00:54:29.576Z,6.28
2022-10-03T00:57:29.637Z,6.70
2022-10-03T01:00:15.639Z,6.82
2022-10-03T01:03:02.344Z,6.97
2022-10-03T01:05:46.496Z,7.28
2022-10-03T01:08:37.228Z,6.88
2022-10-03T01:11:21.649Z,6.60
2022-10-03T01:14:01.691Z,7.05
2022-10-03T01:16:40.133Z,6.60
2022-10-03T01:19:28.996Z,7.43
2022-10-03T01:22:13.450Z,6.72
2022-10-03T01:24:54.774Z,6.70
2022-10-03T01:27:36.236Z,7.63
2022-10-03T01:30:24.625Z,7.22
2022-10-03T01:32:58.911Z,7.20
2022-10-03T01:35:40.178Z,7.78
2022-10-03T01:38:20.867Z,9.05
2022-10-03T01:41:03.647Z,8.02
2022-10-03T01:43:41.702Z,8.02
2022-10-03T01:46:21.773Z,7.85
2022-10-03T01:49:02.300Z,8.80
2022-10-03T01:51:44.633Z,9.57
2022-10-03T01:54:30.318Z,6.50
2022-10-03T01:57:05.220Z,9.00
2022-10-03T01:59:41.925Z,8.45
2022-10-03T02:02:41.995Z,8.23
2022-10-03T02:05:22.007Z,7.00
2022-10-03T02:07:59.819Z,7.72
2022-10-03T02:10:41.707Z,8.40
2022-10-03T02:13:18.868Z,9.85
2022-10-03T02:16:00.376Z,7.82
2022-10-03T02:18:45.692Z,7.70
2022-10-03T02:21:21.708Z,8.57
2022-10-03T02:24:08.085Z,8.10
2022-10-03T02:27:14.774Z,8.65
2022-10-03T02:30:11.539Z,7.55
2022-10-03T02:33:18.791Z,7.53
2022-10-03T02:36:19.178Z,7.45
2022-10-03T02:39:16.279Z,7.97
2022-10-03T02:42:15.454Z,7.60
2022-10-03T02:45:18.388Z,7.70
2022-10-03T02:48:31.814Z,6.80
2022-10-03T02:51:51.738Z,6.93
2022-10-03T02:55:06.159Z,7.22
2022-10-03T02:58:19.904Z,7.18
2022-10-03T03:01:25.991Z,8.07
2022-10-03T03:04:26.278Z,7.25
2022-10-03T03:07:32.543Z,7.70
2022-10-03T03:10:30.283Z,7.28
2022-10-03T03:13:28.654Z,6.25
2022-10-03T03:16:53.996Z,6.13
2022-10-03T03:19:54.769Z,6.97
2022-10-03T03:22:39.089Z,7.20
2022-10-03T03:25:33.461Z,7.30
2022-10-03T03:28:24.971Z,7.45
2022-10-03T03:31:07.470Z,6.85
2022-10-03T03:33:47.832Z,9.48
2022-10-03T03:36:28.054Z,6.93
2022-10-03T03:39:13.840Z,7.55
2022-10-03T03:41:57.320Z,7.10
2022-10-03T03:44:49.344Z,7.07
2022-10-03T03:47:40.079Z,7.57
2022-10-03T03:50:28.405Z,7.40
2022-10-03T03:53:27.299Z,7.30
2022-10-03T03:56:17.884Z,8.35
2022-10-03T03:59:00.290Z,7.03
2022-10-03T04:01:59.020Z,7.30
2022-10-03T04:04:44.678Z,7.55
2022-10-03T04:07:35.348Z,8.38
2022-10-03T04:10:28.643Z,6.97
2022-10-03T04:13:32.764Z,7.45
2022-10-03T04:16:43.077Z,8.32
2022-10-03T04:19:19.359Z,7.38
2022-10-03T04:22:23.429Z,8.27
2022-10-03T04:25:20.590Z,6.57
2022-10-03T04:28:03.579Z,5.68
2022-10-03T04:30:42.114Z,6.55
2022-10-03T04:33:20.308Z,7.30
2022-10-03T04:36:18.155Z,5.90
2022-10-03T04:38:55.224Z,7.68
2022-10-03T04:41:33.735Z,7.40
2022-10-03T04:44:12.033Z,8.32
2022-10-03T04:46:52.951Z,8.68
2022-10-03T04:49:32.191Z,6.88
2022-10-03T04:52:06.804Z,8.38
2022-10-03T04:54:48.418Z,7.85
2022-10-03T04:57:26.317Z,7.65
2022-10-03T05:00:08.404Z,8.98
2022-10-03T05:02:47.786Z,7.75
2022-10-03T05:05:48.741Z,7.65
2022-10-03T05:08:51.124Z,7.35
2022-10-03T05:11:26.690Z,7.50
2022-10-03T05:14:03.778Z,7.32
2022-10-03T05:16:40.349Z,7.40
2022-10-03T05:19:46.060Z,7.40
2022-10-03T05:22:26.596Z,8.38
2022-10-03T05:25:03.127Z,7.13
2022-10-03T05:27:42.424Z,7.82
2022-10-03T05:30:26.963Z,6.40
2022-10-03T05:33:08.349Z,8.18
2022-10-03T05:35:52.440Z,10.43
2022-10-03T05:38:48.536Z,10.65
2022-10-03T05:41:25.917Z,12.13
2022-10-03T05:44:04.039Z,12.15
2022-10-03T05:46:46.894Z,11.00
2022-10-03T05:49:54.143Z,11.80
2022-10-03T05:52:49.639Z,12.90
2022-10-03T05:55:38.047Z,11.50
2022-10-03T05:58:32.554Z,13.68
2022-10-03T06:01:22.806Z,13.10
2022-10-03T06:04:33.092Z,13.45
2022-10-03T06:07:15.413Z,13.90
2022-10-03T06:10:16.171Z,12.23
2022-10-03T06:12:52.409Z,15.10
2022-10-03T06:15:39.317Z,13.25
2022-10-03T06:18:31.537Z,12.85
2022-10-03T06:21:23.331Z,13.10
2022-10-03T06:24:33.156Z,11.25
2022-10-03T06:27:59.626Z,12.32
2022-10-03T06:30:36.122Z,12.98
2022-10-03T06:33:40.505Z,12.70
2022-10-03T06:36:40.955Z,12.52
2022-10-03T06:39:38.110Z,13.20
2022-10-03T06:42:21.822Z,15.65
2022-10-03T06:45:31.031Z,12.55
2022-10-03T06:48:52.238Z,13.13
2022-10-03T06:51:46.436Z,14.27
2022-10-03T06:55:14.492Z,13.27
2022-10-03T06:58:10.876Z,16.85
2022-10-03T07:00:54.863Z,13.10
2022-10-03T07:04:09.016Z,13.98
2022-10-03T07:07:07.634Z,14.90
2022-10-03T07:10:14.513Z,16.55
2022-10-03T07:13:31.108Z,16.25
2022-10-03T07:16:27.505Z,15.07
2022-10-03T07:19:15.878Z,13.88
2022-10-03T07:45:11.557Z,13.35
2022-10-03T07:48:04.987Z,12.20
2022-10-03T07:51:00.220Z,13.45
2022-10-03T07:54:17.740Z,12.77
2022-10-03T07:57:04.166Z,12.00
2022-10-03T08:00:10.487Z,14.57
2022-10-03T08:03:19.466Z,14.75
2022-10-03T08:06:06.479Z,14.30
2022-10-03T08:09:10.009Z,12.10
2022-10-03T08:11:55.052Z,12.10
2022-10-03T08:14:46.175Z,9.95
2022-10-03T08:17:52.728Z,10.30
2022-10-03T08:20:47.724Z,14.70
2022-10-03T08:23:53.769Z,11.95
2022-10-03T08:26:35.212Z,11.32
2022-10-03T08:29:36.341Z,13.27
2022-10-03T08:32:48.729Z,12.95
2022-10-03T08:35:48.835Z,12.55
2022-10-03T08:38:39.612Z,12.45
2022-10-03T08:42:10.144Z,12.25
2022-10-03T08:45:09.411Z,14.20
2022-10-03T08:48:03.509Z,12.70
2022-10-03T08:50:49.029Z,11.75
2022-10-03T08:53:54.149Z,12.15
2022-10-03T08:57:08.453Z,10.43
2022-10-03T09:00:14.942Z,11.13
2022-10-03T09:03:34.353Z,11.00
2022-10-03T09:07:12.624Z,10.43
2022-10-03T09:10:08.550Z,11.05
2022-10-03T09:13:04.379Z,12.00
2022-10-03T09:16:20.882Z,11.30
2022-10-03T09:19:13.006Z,10.07
2022-10-03T09:22:09.552Z,10.10
2022-10-03T09:25:14.642Z,9.30
2022-10-03T09:28:37.764Z,8.30
2022-10-03T09:31:32.085Z,8.70
2022-10-03T09:34:20.747Z,10.27
2022-10-03T09:37:31.492Z,9.85
2022-10-03T09:41:12.808Z,9.50
2022-10-03T09:44:16.662Z,8.32
2022-10-03T09:47:28.178Z,8.32
2022-10-03T09:50:47.127Z,8.07
2022-10-03T09:54:16.654Z,7.10
2022-10-03T09:57:11.640Z,8.40
2022-10-03T10:00:05.015Z,7.85
2022-10-03T10:03:28.055Z,7.70
2022-10-03T10:06:16.164Z,7.80
2022-10-03T10:09:10.807Z,8.10
2022-10-03T10:12:29.941Z,9.23
2022-10-03T10:15:36.801Z,8.80
2022-10-03T10:18:33.659Z,8.95
2022-10-03T10:21:35.809Z,7.80
2022-10-03T10:24:36.770Z,7.13
2022-10-03T10:27:43.491Z,6.93
2022-10-03T10:30:46.953Z,8.32
2022-10-03T10:34:07.185Z,7.35
2022-10-03T10:37:13.801Z,7.65
2022-10-03T10:40:16.561Z,8.20
2022-10-03T10:43:33.748Z,7.00
2022-10-03T10:46:50.034Z,7.20
2022-10-03T10:49:56.769Z,7.45
2022-10-03T10:53:07.509Z,7.55
2022-10-03T10:56:10.304Z,6.88
2022-10-03T10:59:17.704Z,6.30
2022-10-03T11:02:18.771Z,6.13
2022-10-03T11:05:41.470Z,6.75
2022-10-03T11:08:51.675Z,6.55
2022-10-03T11:11:54.598Z,5.35
2022-10-03T11:15:19.622Z,5.10
2022-10-03T11:18:07.265Z,5.07
2022-10-03T11:21:24.218Z,5.22
2022-10-03T11:24:52.596Z,5.75
2022-10-03T11:28:02.202Z,5.78
2022-10-03T11:31:41.086Z,4.80
2022-10-03T11:35:00.521Z,4.47
2022-10-03T11:37:53.214Z,6.07
2022-10-03T11:40:47.176Z,4.43
2022-10-03T11:44:04.151Z,4.95
2022-10-03T11:47:27.122Z,5.25
2022-10-03T11:50:35.281Z,5.72
2022-10-03T11:53:25.664Z,5.72
2022-10-03T11:56:15.278Z,5.13
2022-10-03T11:59:34.159Z,5.07
2022-10-03T12:02:24.450Z,6.03
2022-10-03T12:05:14.914Z,5.32
2022-10-03T12:08:13.915Z,5.30
2022-10-03T12:11:02.493Z,5.65
2022-10-03T12:13:44.274Z,5.90
2022-10-03T12:16:33.256Z,5.50
2022-10-03T12:19:31.872Z,5.45
2022-10-03T12:22:20.995Z,5.47
2022-10-03T12:25:00.453Z,5.80
2022-10-03T12:27:51.980Z,5.20
2022-10-03T12:30:35.548Z,6.40
2022-10-03T12:33:48.406Z,4.60
2022-10-03T12:36:29.257Z,4.60
2022-10-03T12:39:37.571Z,4.30
2022-10-03T12:42:32.835Z,4.88
2022-10-03T12:45:28.540Z,4.85
2022-10-03T12:48:36.083Z,5.28
2022-10-03T12:51:21.126Z,5.25
2022-10-03T12:54:09.549Z,6.28
2022-10-03T12:56:53.053Z,4.90
2022-10-03T12:59:44.305Z,6.43
2022-10-03T13:02:40.229Z,6.22
2022-10-03T13:05:38.445Z,5.93
2022-10-03T13:08:40.122Z,6.50
2022-10-03T13:11:34.950Z,5.20
2022-10-03T13:15:07.019Z,4.93
2022-10-03T13:17:53.624Z,5.68
2022-10-03T13:20:38.471Z,4.93
2022-10-03T13:23:26.493Z,4.82
2022-10-03T13:26:18.450Z,5.68
2022-10-03T13:29:31.689Z,5.25
2022-10-03T13:32:26.232Z,5.40
2022-10-03T13:35:39.172Z,5.07
2022-10-03T13:38:28.114Z,4.90
2022-10-03T13:41:13.690Z,4.60
2022-10-03T13:43:56.041Z,4.38
2022-10-03T13:46:40.537Z,4.05
2022-10-03T13:49:27.122Z,4.60
2022-10-03T13:52:10.236Z,4.85
2022-10-03T13:55:10.106Z,4.10
2022-10-03T13:57:51.031Z,4.95
2022-10-03T14:00:32.283Z,4.38
2022-10-03T14:03:25.989Z,4.38
2022-10-03T14:06:25.687Z,4.22
2022-10-03T14:09:34.930Z,3.50
2022-10-03T14:12:38.070Z,3.80
2022-10-03T14:15:35.479Z,4.25
2022-10-03T14:18:27.019Z,4.35
2022-10-03T14:21:47.168Z,4.65
2022-10-03T14:24:41.262Z,4.88
2022-10-03T14:27:35.291Z,4.97
2022-10-03T14:30:15.911Z,4.10
2022-10-03T14:33:01.172Z,4.70
2022-10-03T14:35:57.620Z,4.82
2022-10-03T14:39:04.096Z,3.80
2022-10-03T14:41:52.343Z,3.78
2022-10-03T14:44:40.905Z,3.72
2022-10-03T14:47:17.729Z,3.83
2022-10-03T14:49:59.231Z,4.22
2022-10-03T14:52:42.600Z,4.43
2022-10-03T14:55:22.820Z,4.15
2022-10-03T14:58:11.638Z,4.20
2022-10-03T15:00:46.853Z,3.60
2022-10-03T15:03:30.595Z,3.47
2022-10-03T15:06:25.318Z,4.55
2022-10-03T15:09:04.858Z,4.30
2022-10-03T15:11:50.972Z,3.85
2022-10-03T15:14:29.759Z,4.07
2022-10-03T15:17:12.940Z,3.63
2022-10-03T15:19:58.533Z,4.05
2022-10-03T15:22:38.459Z,4.25
2022-10-03T15:25:19.128Z,3.58
2022-10-03T15:27:59.623Z,3.60
2022-10-03T15:30:41.573Z,3.45
2022-10-03T15:33:21.971Z,5.07
2022-10-03T15:36:03.173Z,3.80
2022-10-03T15:38:41.564Z,3.75
2022-10-03T15:41:21.551Z,4.38
2022-10-03T15:44:05.211Z,3.90
2022-10-03T15:46:49.021Z,4.68
2022-10-03T15:49:28.662Z,3.90
2022-10-03T15:52:11.778Z,4.15
2022-10-03T15:54:50.672Z,3.83
2022-10-03T15:57:29.806Z,4.28
2022-10-03T16:00:03.624Z,3.85
2022-10-03T16:02:43.360Z,3.72
2022-10-03T16:05:21.729Z,4.47
2022-10-03T16:07:59.399Z,3.97
2022-10-03T16:10:32.664Z,4.55
2022-10-03T16:13:08.101Z,4.47
2022-10-03T16:15:54.556Z,5.22
2022-10-03T16:18:52.051Z,4.80
2022-10-03T16:21:33.859Z,4.50
2022-10-03T16:24:05.772Z,4.80
2022-10-03T16:26:43.089Z,4.10
2022-10-03T16:29:17.537Z,4.70
2022-10-03T16:31:52.860Z,4.43
2022-10-03T16:34:26.773Z,4.38
2022-10-03T16:36:56.025Z,4.10
2022-10-03T16:39:27.128Z,4.70
2022-10-03T16:41:56.554Z,5.30
2022-10-03T16:44:28.424Z,5.10
2022-10-03T16:47:01.835Z,5.60
2022-10-03T16:49:56.565Z,5.75
2022-10-03T16:52:44.144Z,5.18
2022-10-03T16:55:18.607Z,5.32
2022-10-03T16:57:54.969Z,5.30
2022-10-03T17:01:22.152Z,4.30
2022-10-03T17:03:50.142Z,4.90
2022-10-03T17:06:23.115Z,4.88
2022-10-03T17:09:25.966Z,4.68
2022-10-03T17:12:18.271Z,4.68
2022-10-03T17:14:51.110Z,5.20
2022-10-03T17:17:36.892Z,4.43
2022-10-03T17:20:16.800Z,4.93
2022-10-03T17:22:58.469Z,4.05
2022-10-03T17:25:44.327Z,5.78
2022-10-03T17:28:21.233Z,4.30
2022-10-03T17:31:32.227Z,4.28
2022-10-03T17:34:16.235Z,5.18
2022-10-03T17:37:21.988Z,6.32
2022-10-03T17:39:59.824Z,4.95
2022-10-03T17:42:38.098Z,5.90
2022-10-03T17:45:28.106Z,5.53
2022-10-03T17:48:04.814Z,4.68
2022-10-03T17:50:48.532Z,4.60
2022-10-03T17:53:25.726Z,4.53
2022-10-03T17:56:05.298Z,6.40
2022-10-03T17:58:41.371Z,5.40
2022-10-03T18:01:21.832Z,5.03
2022-10-03T18:04:07.563Z,4.93
2022-10-03T18:06:58.617Z,6.30
2022-10-03T18:09:44.691Z,6.72
2022-10-03T18:12:29.951Z,6.82
2022-10-03T18:15:44.742Z,5.00
2022-10-03T18:18:52.765Z,5.05
2022-10-03T18:21:56.651Z,5.82
2022-10-03T18:25:04.479Z,4.90
2022-10-03T18:28:19.289Z,4.90
2022-10-03T18:31:04.501Z,4.57
2022-10-03T18:33:52.821Z,5.00
2022-10-03T18:36:31.293Z,4.57
2022-10-03T18:39:15.689Z,4.65
2022-10-03T18:41:58.257Z,4.47
2022-10-03T18:44:38.862Z,4.28
2022-10-03T18:47:27.543Z,5.85
2022-10-03T18:50:10.512Z,5.20
2022-10-03T18:52:55.114Z,5.18
2022-10-03T18:55:33.686Z,6.50
2022-10-03T18:58:23.249Z,5.43
2022-10-03T19:01:13.727Z,4.25
2022-10-03T19:03:59.921Z,4.60
2022-10-03T19:06:39.207Z,4.70
2022-10-03T19:09:24.734Z,5.72
2022-10-03T19:12:05.875Z,5.00
2022-10-03T19:14:47.353Z,5.03
2022-10-03T19:17:28.837Z,4.35
2022-10-03T19:20:23.190Z,5.28
2022-10-03T19:23:07.138Z,5.60
2022-10-03T19:25:44.693Z,4.70
2022-10-03T19:28:23.678Z,4.75
2022-10-03T19:31:07.107Z,4.90
2022-10-03T19:33:49.220Z,6.78
2022-10-03T19:36:26.338Z,7.05
2022-10-03T19:39:02.936Z,5.78
2022-10-03T19:41:43.778Z,5.00
2022-10-03T19:44:42.594Z,5.60
2022-10-03T19:47:23.823Z,6.20
2022-10-03T19:50:26.139Z,4.95
2022-10-03T19:53:01.818Z,5.05
2022-10-03T19:55:40.024Z,5.95
2022-10-03T19:58:24.346Z,4.65
2022-10-03T20:01:11.423Z,5.30
2022-10-03T20:04:01.867Z,5.15
2022-10-03T20:06:37.619Z,4.43
2022-10-03T20:11:57.062Z,4.40
2022-10-03T20:14:36.601Z,4.32
2022-10-03T20:17:17.453Z,5.20
2022-10-03T20:19:55.307Z,5.35
2022-10-03T20:22:30.140Z,5.47
2022-10-03T20:25:02.492Z,4.40
2022-10-03T20:27:39.127Z,5.30
2022-10-03T20:30:25.027Z,4.32
2022-10-03T20:32:56.491Z,4.60
2022-10-03T20:35:27.049Z,4.82
2022-10-03T20:38:00.552Z,5.78
2022-10-03T20:40:36.152Z,6.93
2022-10-03T20:43:20.860Z,6.38
2022-10-03T20:46:00.489Z,5.80
2022-10-03T20:48:34.745Z,5.80
2022-10-03T20:51:03.046Z,5.38
2022-10-03T20:53:32.992Z,8.07
2022-10-03T20:56:05.759Z,6.25
2022-10-03T20:58:40.013Z,7.80
2022-10-03T21:01:11.465Z,9.45
2022-10-03T21:03:44.443Z,7.88
2022-10-03T21:06:19.864Z,7.95
2022-10-03T21:08:48.774Z,7.40
2022-10-03T21:11:22.347Z,6.30
2022-10-03T21:13:56.185Z,8.20
2022-10-03T21:16:28.068Z,6.40
2022-10-03T21:19:01.235Z,7.13
2022-10-03T21:21:42.149Z,7.30
2022-10-03T21:24:16.751Z,6.72
2022-10-03T21:26:47.925Z,7.63
2022-10-03T21:29:26.523Z,7.30
2022-10-03T21:32:06.844Z,6.70
2022-10-03T21:34:44.475Z,7.65
2022-10-03T21:37:19.331Z,6.85
2022-10-03T21:40:00.710Z,7.05
2022-10-03T21:42:36.797Z,6.55
2022-10-03T21:45:22.680Z,6.95
2022-10-03T21:47:57.369Z,6.53
2022-10-03T21:50:30.805Z,7.55
2022-10-03T21:53:18.986Z,8.70
2022-10-03T21:56:16.939Z,7.13
2022-10-03T21:59:20.589Z,7.75
2022-10-03T22:01:58.266Z,8.02
2022-10-03T22:04:33.117Z,7.90
2022-10-03T22:07:06.899Z,7.63
2022-10-03T22:09:35.477Z,7.40
2022-10-03T22:12:08.108Z,6.78
2022-10-03T22:14:44.180Z,7.85
2022-10-03T22:17:22.786Z,7.35
2022-10-03T22:19:53.923Z,7.63
2022-10-03T22:22:36.696Z,7.15
2022-10-03T22:25:16.886Z,7.40
2022-10-03T22:27:54.776Z,7.15
2022-10-03T22:30:23.698Z,8.20
2022-10-03T22:33:08.190Z,7.68
2022-10-03T22:35:50.353Z,7.00
2022-10-03T22:38:23.534Z,8.15
2022-10-03T23:10:31.484Z,6.35
2022-10-03T23:13:04.456Z,7.60
2022-10-03T23:15:35.305Z,6.97
2022-10-03T23:18:27.505Z,6.10
2022-10-03T23:21:05.857Z,6.60
2022-10-03T23:23:57.185Z,6.72
2022-10-03T23:26:45.575Z,6.72
2022-10-03T23:29:18.539Z,6.40
2022-10-03T23:31:53.349Z,6.35
2022-10-03T23:35:10.473Z,7.47
2022-10-03T23:37:44.370Z,6.72
2022-10-03T23:40:31.381Z,6.65
2022-10-03T23:43:06.196Z,6.75
2022-10-03T23:45:36.370Z,6.72
2022-10-03T23:48:10.195Z,6.93
2022-10-03T23:50:44.971Z,6.80
2022-10-03T23:53:25.180Z,5.90
2022-10-03T23:55:53.395Z,6.50
2022-10-03T23:58:30.718Z,6.78
